JST513 YSSY-YMML
Flight info
| Callsign | JST513 |
|---|---|
| Flight time | 1h 3m |
| Altitude | 34000 |
| Route | GROOK1/16R WOL H65 LEECE Q29 ML |
| Aircraft | A320/M-SDE3FGHIRWY/LB1 |
Departure
| Time | 2026-04-23 02:31 |
|---|---|
| Airport | Sydney Kingsford Smith International Airport (YSSY) |
Arrival
| Time | 2026-04-23 03:35 |
|---|---|
| Airport | Melbourne Airport (YMML) |
| Time | Latitude | Longitude | Altitude | Speed | Heading |
|---|---|---|---|---|---|
| 2026-04-23 01:39 | -33.93560 | 151.17688 | 30 ft | 0 kts | 100° |
| 2026-04-23 02:20 | -33.93557 | 151.17662 | 30 ft | 4 kts | 82° |
| 2026-04-23 02:20 | -33.93566 | 151.17632 | 30 ft | 4 kts | 52° |
| 2026-04-23 02:21 | -33.93585 | 151.17613 | 30 ft | 4 kts | 12° |
| 2026-04-23 02:21 | -33.93597 | 151.17612 | 30 ft | 0 kts | 348° |
| 2026-04-23 02:25 | -33.93597 | 151.17611 | 30 ft | 1 kts | 348° |
| 2026-04-23 02:25 | -33.93585 | 151.17609 | 30 ft | 3 kts | 349° |
| 2026-04-23 02:25 | -33.93558 | 151.17603 | 30 ft | 5 kts | 351° |
| 2026-04-23 02:26 | -33.93516 | 151.17594 | 30 ft | 7 kts | 348° |
| 2026-04-23 02:26 | -33.93462 | 151.17583 | 30 ft | 9 kts | 357° |
| 2026-04-23 02:26 | -33.93395 | 151.17587 | 30 ft | 10 kts | 359° |
| 2026-04-23 02:26 | -33.93317 | 151.17572 | 30 ft | 12 kts | 349° |
| 2026-04-23 02:27 | -33.93229 | 151.17551 | 30 ft | 14 kts | 348° |
| 2026-04-23 02:27 | -33.93146 | 151.17530 | 30 ft | 13 kts | 348° |
| 2026-04-23 02:27 | -33.93076 | 151.17471 | 30 ft | 14 kts | 290° |
| 2026-04-23 02:27 | -33.93004 | 151.17404 | 28 ft | 8 kts | 348° |
| 2026-04-23 02:28 | -33.92943 | 151.17389 | 30 ft | 10 kts | 348° |
| 2026-04-23 02:28 | -33.92890 | 151.17335 | 30 ft | 11 kts | 287° |
| 2026-04-23 02:28 | -33.92891 | 151.17294 | 31 ft | 0 kts | 254° |
| 2026-04-23 02:29 | -33.92892 | 151.17290 | 31 ft | 0 kts | 252° |
| 2026-04-23 02:29 | -33.92893 | 151.17287 | 31 ft | 1 kts | 250° |
| 2026-04-23 02:30 | -33.92903 | 151.17265 | 31 ft | 8 kts | 237° |
| 2026-04-23 02:30 | -33.92966 | 151.17179 | 30 ft | 19 kts | 207° |
| 2026-04-23 02:30 | -33.93171 | 151.17225 | 31 ft | 56 kts | 167° |
| 2026-04-23 02:30 | -33.93753 | 151.17378 | 29 ft | 113 kts | 168° |
| 2026-04-23 02:31 | -33.94677 | 151.17622 | 32 ft | 157 kts | 167° |
| 2026-04-23 02:31 | -33.95784 | 151.17910 | 458 ft | 166 kts | 166° |
| 2026-04-23 02:31 | -33.96937 | 151.18051 | 1132 ft | 167 kts | 179° |
| 2026-04-23 02:31 | -33.98097 | 151.17972 | 1769 ft | 168 kts | 181° |
| 2026-04-23 02:32 | -33.99328 | 151.17867 | 2062 ft | 188 kts | 181° |
| 2026-04-23 02:32 | -34.00712 | 151.17738 | 2318 ft | 213 kts | 182° |
| 2026-04-23 02:32 | -34.02290 | 151.17592 | 2597 ft | 240 kts | 179° |
| 2026-04-23 02:32 | -34.03961 | 151.17936 | 3281 ft | 249 kts | 161° |
| 2026-04-23 02:33 | -34.05635 | 151.18563 | 4151 ft | 253 kts | 163° |
| 2026-04-23 02:33 | -34.07333 | 151.19131 | 5078 ft | 254 kts | 164° |
| 2026-04-23 02:33 | -34.09042 | 151.19684 | 5987 ft | 255 kts | 164° |
| 2026-04-23 02:33 | -34.10786 | 151.20251 | 6737 ft | 263 kts | 163° |
| 2026-04-23 02:34 | -34.12569 | 151.20832 | 7492 ft | 268 kts | 163° |
| 2026-04-23 02:34 | -34.14383 | 151.21427 | 8262 ft | 272 kts | 163° |
| 2026-04-23 02:34 | -34.16218 | 151.22030 | 9047 ft | 275 kts | 163° |
| 2026-04-23 02:34 | -34.18117 | 151.22397 | 9820 ft | 281 kts | 179° |
| 2026-04-23 02:35 | -34.20059 | 151.22008 | 10559 ft | 287 kts | 197° |
| 2026-04-23 02:35 | -34.21844 | 151.20824 | 10897 ft | 310 kts | 218° |
| 2026-04-23 02:35 | -34.23332 | 151.18879 | 11444 ft | 319 kts | 227° |
| 2026-04-23 02:35 | -34.24778 | 151.16822 | 12125 ft | 323 kts | 227° |
| 2026-04-23 02:36 | -34.26241 | 151.14750 | 12823 ft | 325 kts | 226° |
| 2026-04-23 02:36 | -34.27719 | 151.12663 | 13519 ft | 328 kts | 226° |
| 2026-04-23 02:36 | -34.29215 | 151.10561 | 14210 ft | 331 kts | 226° |
| 2026-04-23 02:36 | -34.30721 | 151.08447 | 14828 ft | 333 kts | 226° |
| 2026-04-23 02:37 | -34.32240 | 151.06313 | 15446 ft | 336 kts | 226° |
| 2026-04-23 02:37 | -34.33768 | 151.04166 | 16057 ft | 337 kts | 226° |
| 2026-04-23 02:37 | -34.35301 | 151.02004 | 16671 ft | 340 kts | 226° |
| 2026-04-23 02:37 | -34.36846 | 150.99828 | 17287 ft | 342 kts | 224° |
| 2026-04-23 02:38 | -34.38561 | 150.97812 | 17648 ft | 350 kts | 219° |
| 2026-04-23 02:38 | -34.40415 | 150.95793 | 17794 ft | 366 kts | 218° |
| 2026-04-23 02:38 | -34.42352 | 150.93706 | 18028 ft | 378 kts | 218° |
| 2026-04-23 02:38 | -34.44331 | 150.91576 | 18544 ft | 383 kts | 218° |
| 2026-04-23 02:39 | -34.46329 | 150.89420 | 19091 ft | 386 kts | 218° |
| 2026-04-23 02:39 | -34.48335 | 150.87247 | 19642 ft | 388 kts | 218° |
| 2026-04-23 02:39 | -34.50353 | 150.85054 | 20189 ft | 391 kts | 219° |
| 2026-04-23 02:39 | -34.52381 | 150.82841 | 20722 ft | 394 kts | 219° |
| 2026-04-23 02:40 | -34.54422 | 150.80609 | 21236 ft | 397 kts | 219° |
| 2026-04-23 02:40 | -34.56317 | 150.78210 | 21716 ft | 402 kts | 228° |
| 2026-04-23 02:40 | -34.57988 | 150.75469 | 22191 ft | 405 kts | 231° |
| 2026-04-23 02:40 | -34.59655 | 150.72703 | 22642 ft | 408 kts | 231° |
| 2026-04-23 02:41 | -34.61337 | 150.69922 | 23098 ft | 410 kts | 231° |
| 2026-04-23 02:41 | -34.63028 | 150.67120 | 23555 ft | 412 kts | 231° |
| 2026-04-23 02:41 | -34.64728 | 150.64300 | 23987 ft | 415 kts | 231° |
| 2026-04-23 02:41 | -34.66435 | 150.61465 | 24351 ft | 417 kts | 231° |
| 2026-04-23 02:42 | -34.68146 | 150.58619 | 24702 ft | 419 kts | 231° |
| 2026-04-23 02:42 | -34.69871 | 150.55748 | 25060 ft | 421 kts | 231° |
| 2026-04-23 02:42 | -34.71602 | 150.52869 | 25412 ft | 422 kts | 231° |
| 2026-04-23 02:42 | -34.73337 | 150.49984 | 25759 ft | 424 kts | 231° |
| 2026-04-23 02:43 | -34.75078 | 150.47082 | 26110 ft | 426 kts | 232° |
| 2026-04-23 02:43 | -34.76822 | 150.44164 | 26442 ft | 428 kts | 232° |
| 2026-04-23 02:43 | -34.78574 | 150.41225 | 26774 ft | 430 kts | 232° |
| 2026-04-23 02:43 | -34.80333 | 150.38278 | 27111 ft | 432 kts | 232° |
| 2026-04-23 02:44 | -34.82100 | 150.35319 | 27451 ft | 434 kts | 232° |
| 2026-04-23 02:44 | -34.83879 | 150.32341 | 27783 ft | 435 kts | 232° |
| 2026-04-23 02:44 | -34.85638 | 150.29398 | 28117 ft | 437 kts | 232° |
| 2026-04-23 02:44 | -34.87420 | 150.26408 | 28583 ft | 435 kts | 232° |
| 2026-04-23 02:45 | -34.89193 | 150.23425 | 29053 ft | 434 kts | 232° |
| 2026-04-23 02:45 | -34.90960 | 150.20451 | 29532 ft | 432 kts | 232° |
| 2026-04-23 02:45 | -34.92719 | 150.17488 | 30015 ft | 431 kts | 232° |
| 2026-04-23 02:45 | -34.94469 | 150.14535 | 30482 ft | 430 kts | 232° |
| 2026-04-23 02:46 | -34.96219 | 150.11585 | 30877 ft | 429 kts | 232° |
| 2026-04-23 02:46 | -34.97967 | 150.08641 | 31273 ft | 428 kts | 232° |
| 2026-04-23 02:46 | -34.99142 | 150.06659 | 31537 ft | 428 kts | 232° |
| 2026-04-23 02:46 | -35.00881 | 150.03716 | 31938 ft | 427 kts | 232° |
| 2026-04-23 02:47 | -35.02587 | 150.00825 | 32334 ft | 426 kts | 232° |
| 2026-04-23 02:47 | -35.04317 | 149.97900 | 32751 ft | 424 kts | 232° |
| 2026-04-23 02:47 | -35.06042 | 149.94983 | 33173 ft | 423 kts | 232° |
| 2026-04-23 02:47 | -35.07764 | 149.92068 | 33583 ft | 422 kts | 232° |
| 2026-04-23 02:48 | -35.09480 | 149.89164 | 34000 ft | 421 kts | 232° |
| 2026-04-23 02:48 | -35.11192 | 149.86265 | 34362 ft | 421 kts | 232° |
| 2026-04-23 02:48 | -35.12908 | 149.83356 | 34430 ft | 425 kts | 232° |
| 2026-04-23 02:49 | -35.16392 | 149.77424 | 34432 ft | 432 kts | 232° |
| 2026-04-23 02:49 | -35.19897 | 149.71446 | 34442 ft | 433 kts | 232° |
| 2026-04-23 02:50 | -35.23405 | 149.65453 | 34438 ft | 433 kts | 232° |
| 2026-04-23 02:50 | -35.26907 | 149.59462 | 34426 ft | 433 kts | 232° |
| 2026-04-23 02:51 | -35.30412 | 149.53465 | 34450 ft | 433 kts | 232° |
| 2026-04-23 02:51 | -35.33894 | 149.47505 | 34455 ft | 433 kts | 232° |
| 2026-04-23 02:52 | -35.37408 | 149.41460 | 34463 ft | 433 kts | 232° |
| 2026-04-23 02:52 | -35.40867 | 149.35486 | 34467 ft | 433 kts | 232° |
| 2026-04-23 02:53 | -35.44351 | 149.29471 | 34474 ft | 433 kts | 232° |
| 2026-04-23 02:53 | -35.47837 | 149.23454 | 34471 ft | 433 kts | 232° |
| 2026-04-23 02:54 | -35.51315 | 149.17435 | 34467 ft | 432 kts | 232° |
| 2026-04-23 02:54 | -35.54794 | 149.11406 | 34462 ft | 433 kts | 232° |
| 2026-04-23 02:55 | -35.58266 | 149.05371 | 34449 ft | 433 kts | 232° |
| 2026-04-23 02:55 | -35.61739 | 148.99332 | 34441 ft | 432 kts | 231° |
| 2026-04-23 02:56 | -35.65203 | 148.93296 | 34447 ft | 432 kts | 231° |
| 2026-04-23 02:56 | -35.68669 | 148.87262 | 34445 ft | 432 kts | 231° |
| 2026-04-23 02:57 | -35.72127 | 148.81221 | 34444 ft | 431 kts | 231° |
| 2026-04-23 02:57 | -35.75576 | 148.75180 | 34427 ft | 431 kts | 231° |
| 2026-04-23 02:58 | -35.79014 | 148.69132 | 34434 ft | 431 kts | 231° |
| 2026-04-23 02:58 | -35.82420 | 148.63133 | 34434 ft | 430 kts | 231° |
| 2026-04-23 02:59 | -35.85845 | 148.57097 | 34433 ft | 430 kts | 231° |
| 2026-04-23 02:59 | -35.89265 | 148.51061 | 34438 ft | 429 kts | 231° |
| 2026-04-23 03:00 | -35.92674 | 148.45020 | 34422 ft | 429 kts | 231° |
| 2026-04-23 03:00 | -35.96076 | 148.38975 | 34432 ft | 428 kts | 231° |
| 2026-04-23 03:01 | -35.99467 | 148.32933 | 34435 ft | 428 kts | 231° |
| 2026-04-23 03:01 | -36.02855 | 148.26893 | 34434 ft | 427 kts | 231° |
| 2026-04-23 03:02 | -36.06235 | 148.20861 | 34427 ft | 427 kts | 231° |
| 2026-04-23 03:02 | -36.09607 | 148.14817 | 34419 ft | 426 kts | 231° |
| 2026-04-23 03:03 | -36.12977 | 148.08780 | 34418 ft | 427 kts | 231° |
| 2026-04-23 03:03 | -36.16356 | 148.02747 | 34421 ft | 427 kts | 231° |
| 2026-04-23 03:04 | -36.19728 | 147.96707 | 34423 ft | 427 kts | 231° |
| 2026-04-23 03:04 | -36.23100 | 147.90657 | 34412 ft | 427 kts | 231° |
| 2026-04-23 03:05 | -36.26465 | 147.84601 | 34418 ft | 427 kts | 231° |
| 2026-04-23 03:05 | -36.29829 | 147.78538 | 34423 ft | 427 kts | 231° |
| 2026-04-23 03:06 | -36.33191 | 147.72475 | 34419 ft | 427 kts | 231° |
| 2026-04-23 03:06 | -36.36526 | 147.66454 | 34416 ft | 426 kts | 231° |
| 2026-04-23 03:07 | -36.39872 | 147.60380 | 34412 ft | 426 kts | 231° |
| 2026-04-23 03:07 | -36.43213 | 147.54290 | 34418 ft | 426 kts | 231° |
| 2026-04-23 03:08 | -36.46549 | 147.48209 | 34421 ft | 426 kts | 231° |
| 2026-04-23 03:08 | -36.49890 | 147.42125 | 34422 ft | 426 kts | 231° |
| 2026-04-23 03:09 | -36.53228 | 147.36042 | 34405 ft | 426 kts | 231° |
| 2026-04-23 03:09 | -36.56559 | 147.29945 | 34415 ft | 426 kts | 231° |
| 2026-04-23 03:10 | -36.59883 | 147.23850 | 34417 ft | 426 kts | 231° |
| 2026-04-23 03:10 | -36.63196 | 147.17756 | 34420 ft | 426 kts | 231° |
| 2026-04-23 03:11 | -36.66514 | 147.11639 | 34420 ft | 426 kts | 231° |
| 2026-04-23 03:11 | -36.69806 | 147.05568 | 34409 ft | 426 kts | 231° |
| 2026-04-23 03:12 | -36.73114 | 146.99450 | 34418 ft | 426 kts | 231° |
| 2026-04-23 03:12 | -36.76423 | 146.93325 | 34420 ft | 426 kts | 231° |
| 2026-04-23 03:13 | -36.79732 | 146.87191 | 34422 ft | 426 kts | 231° |
| 2026-04-23 03:13 | -36.83038 | 146.81051 | 34403 ft | 426 kts | 232° |
| 2026-04-23 03:14 | -36.86342 | 146.74903 | 34409 ft | 427 kts | 232° |
| 2026-04-23 03:14 | -36.89646 | 146.68746 | 34198 ft | 428 kts | 232° |
| 2026-04-23 03:14 | -36.91299 | 146.65658 | 33704 ft | 427 kts | 232° |
| 2026-04-23 03:15 | -36.92952 | 146.62561 | 33225 ft | 429 kts | 232° |
| 2026-04-23 03:15 | -36.94606 | 146.59460 | 32750 ft | 430 kts | 232° |
| 2026-04-23 03:15 | -36.96270 | 146.56342 | 32286 ft | 432 kts | 232° |
| 2026-04-23 03:15 | -36.97944 | 146.53212 | 31829 ft | 434 kts | 232° |
| 2026-04-23 03:16 | -36.99625 | 146.50066 | 31383 ft | 436 kts | 232° |
| 2026-04-23 03:16 | -37.01305 | 146.46913 | 30945 ft | 438 kts | 233° |
| 2026-04-23 03:16 | -37.04675 | 146.40576 | 30013 ft | 442 kts | 233° |
| 2026-04-23 03:17 | -37.06382 | 146.37367 | 29499 ft | 444 kts | 233° |
| 2026-04-23 03:17 | -37.08094 | 146.34142 | 29008 ft | 446 kts | 233° |
| 2026-04-23 03:17 | -37.09813 | 146.30899 | 28511 ft | 447 kts | 233° |
| 2026-04-23 03:17 | -37.11526 | 146.27663 | 28031 ft | 445 kts | 233° |
| 2026-04-23 03:18 | -37.13233 | 146.24433 | 27549 ft | 443 kts | 233° |
| 2026-04-23 03:18 | -37.14927 | 146.21229 | 27002 ft | 440 kts | 234° |
| 2026-04-23 03:18 | -37.16610 | 146.18047 | 26481 ft | 437 kts | 234° |
| 2026-04-23 03:18 | -37.18284 | 146.14877 | 25962 ft | 434 kts | 234° |
| 2026-04-23 03:19 | -37.19941 | 146.11728 | 25450 ft | 431 kts | 234° |
| 2026-04-23 03:19 | -37.21588 | 146.08595 | 24951 ft | 429 kts | 234° |
| 2026-04-23 03:19 | -37.23224 | 146.05477 | 24460 ft | 426 kts | 234° |
| 2026-04-23 03:19 | -37.24852 | 146.02378 | 23966 ft | 424 kts | 234° |
| 2026-04-23 03:20 | -37.26473 | 145.99290 | 23403 ft | 422 kts | 234° |
| 2026-04-23 03:20 | -37.28081 | 145.96225 | 22836 ft | 419 kts | 234° |
| 2026-04-23 03:20 | -37.29680 | 145.93173 | 22288 ft | 416 kts | 235° |
| 2026-04-23 03:20 | -37.31265 | 145.90140 | 21744 ft | 413 kts | 235° |
| 2026-04-23 03:21 | -37.32842 | 145.87138 | 21217 ft | 410 kts | 234° |
| 2026-04-23 03:21 | -37.34411 | 145.84161 | 20697 ft | 408 kts | 235° |
| 2026-04-23 03:21 | -37.35970 | 145.81198 | 20181 ft | 405 kts | 235° |
| 2026-04-23 03:21 | -37.37517 | 145.78251 | 19667 ft | 402 kts | 235° |
| 2026-04-23 03:22 | -37.39052 | 145.75322 | 19176 ft | 400 kts | 235° |
| 2026-04-23 03:22 | -37.40558 | 145.72446 | 18685 ft | 398 kts | 235° |
| 2026-04-23 03:22 | -37.42072 | 145.69547 | 18138 ft | 395 kts | 235° |
| 2026-04-23 03:22 | -37.43575 | 145.66664 | 17580 ft | 392 kts | 236° |
| 2026-04-23 03:23 | -37.45065 | 145.63807 | 17044 ft | 389 kts | 235° |
| 2026-04-23 03:23 | -37.46589 | 145.61007 | 16513 ft | 386 kts | 234° |
| 2026-04-23 03:23 | -37.48156 | 145.58284 | 15991 ft | 382 kts | 233° |
| 2026-04-23 03:23 | -37.49738 | 145.55616 | 15477 ft | 379 kts | 232° |
| 2026-04-23 03:24 | -37.51311 | 145.52980 | 14972 ft | 375 kts | 233° |
| 2026-04-23 03:24 | -37.52872 | 145.50353 | 14472 ft | 373 kts | 233° |
| 2026-04-23 03:24 | -37.54406 | 145.47742 | 13954 ft | 370 kts | 233° |
| 2026-04-23 03:24 | -37.55922 | 145.45134 | 13408 ft | 367 kts | 233° |
| 2026-04-23 03:25 | -37.57418 | 145.42550 | 12864 ft | 365 kts | 233° |
| 2026-04-23 03:25 | -37.58904 | 145.39976 | 12322 ft | 361 kts | 233° |
| 2026-04-23 03:25 | -37.60373 | 145.37431 | 11805 ft | 357 kts | 233° |
| 2026-04-23 03:25 | -37.61831 | 145.34909 | 11288 ft | 354 kts | 233° |
| 2026-04-23 03:26 | -37.63275 | 145.32412 | 10858 ft | 350 kts | 233° |
| 2026-04-23 03:26 | -37.64683 | 145.29978 | 10687 ft | 338 kts | 232° |
| 2026-04-23 03:26 | -37.66045 | 145.27622 | 10517 ft | 326 kts | 233° |
| 2026-04-23 03:26 | -37.67361 | 145.25339 | 10344 ft | 317 kts | 232° |
| 2026-04-23 03:27 | -37.68626 | 145.23137 | 10018 ft | 304 kts | 233° |
| 2026-04-23 03:27 | -37.69835 | 145.21033 | 9478 ft | 297 kts | 233° |
| 2026-04-23 03:27 | -37.71040 | 145.18940 | 8920 ft | 293 kts | 233° |
| 2026-04-23 03:27 | -37.72232 | 145.16871 | 8361 ft | 289 kts | 232° |
| 2026-04-23 03:28 | -37.73405 | 145.14832 | 7810 ft | 285 kts | 232° |
| 2026-04-23 03:28 | -37.74560 | 145.12815 | 7273 ft | 281 kts | 232° |
| 2026-04-23 03:28 | -37.75697 | 145.10826 | 6832 ft | 275 kts | 232° |
| 2026-04-23 03:28 | -37.76788 | 145.08915 | 6580 ft | 262 kts | 232° |
| 2026-04-23 03:29 | -37.77851 | 145.07055 | 6289 ft | 262 kts | 232° |
| 2026-04-23 03:29 | -37.78925 | 145.05187 | 5877 ft | 265 kts | 232° |
| 2026-04-23 03:29 | -37.80009 | 145.03304 | 5425 ft | 265 kts | 232° |
| 2026-04-23 03:29 | -37.81036 | 145.01382 | 4965 ft | 260 kts | 242° |
| 2026-04-23 03:30 | -37.81662 | 144.99269 | 4513 ft | 255 kts | 258° |
| 2026-04-23 03:30 | -37.82037 | 144.97098 | 4064 ft | 251 kts | 258° |
| 2026-04-23 03:30 | -37.82406 | 144.94972 | 3708 ft | 242 kts | 259° |
| 2026-04-23 03:30 | -37.82730 | 144.92939 | 3460 ft | 230 kts | 261° |
| 2026-04-23 03:31 | -37.82983 | 144.90965 | 3213 ft | 224 kts | 263° |
| 2026-04-23 03:31 | -37.83148 | 144.89070 | 3034 ft | 209 kts | 277° |
| 2026-04-23 03:31 | -37.82632 | 144.87434 | 3009 ft | 200 kts | 313° |
| 2026-04-23 03:31 | -37.81488 | 144.86519 | 2932 ft | 198 kts | 347° |
| 2026-04-23 03:32 | -37.80140 | 144.86253 | 2659 ft | 196 kts | 352° |
| 2026-04-23 03:32 | -37.78788 | 144.86009 | 2392 ft | 196 kts | 352° |
| 2026-04-23 03:32 | -37.77476 | 144.85766 | 2141 ft | 188 kts | 352° |
| 2026-04-23 03:32 | -37.76217 | 144.85530 | 1860 ft | 178 kts | 352° |
| 2026-04-23 03:33 | -37.75024 | 144.85305 | 1607 ft | 168 kts | 352° |
| 2026-04-23 03:33 | -37.73908 | 144.85096 | 1409 ft | 156 kts | 353° |
| 2026-04-23 03:33 | -37.72889 | 144.84904 | 1215 ft | 142 kts | 353° |
| 2026-04-23 03:33 | -37.71926 | 144.84713 | 1000 ft | 140 kts | 353° |
| 2026-04-23 03:34 | -37.70974 | 144.84525 | 858 ft | 138 kts | 355° |
| 2026-04-23 03:34 | -37.70020 | 144.84353 | 632 ft | 139 kts | 354° |
| 2026-04-23 03:34 | -37.69071 | 144.84184 | 474 ft | 137 kts | 355° |
| 2026-04-23 03:34 | -37.68135 | 144.84013 | 358 ft | 129 kts | 354° |
| 2026-04-23 03:35 | -37.67413 | 144.83888 | 371 ft | 67 kts | 352° |
| 2026-04-23 03:35 | -37.67190 | 144.83844 | 380 ft | 6 kts | 351° |
| 2026-04-23 03:35 | -37.67133 | 144.83834 | 382 ft | 13 kts | 352° |
| 2026-04-23 03:35 | -37.67018 | 144.83839 | 385 ft | 19 kts | 10° |
| 2026-04-23 03:36 | -37.66898 | 144.83882 | 390 ft | 17 kts | 21° |
| 2026-04-23 03:36 | -37.66816 | 144.83925 | 392 ft | 12 kts | 22° |
| 2026-04-23 03:36 | -37.66745 | 144.83980 | 390 ft | 12 kts | 47° |
| 2026-04-23 03:36 | -37.66721 | 144.84084 | 395 ft | 14 kts | 90° |
| 2026-04-23 03:37 | -37.66777 | 144.84188 | 393 ft | 17 kts | 157° |
| 2026-04-23 03:37 | -37.66912 | 144.84216 | 388 ft | 22 kts | 172° |
| 2026-04-23 03:37 | -37.67079 | 144.84247 | 384 ft | 26 kts | 172° |
| 2026-04-23 03:37 | -37.67213 | 144.84271 | 381 ft | 18 kts | 172° |
| 2026-04-23 03:38 | -37.67352 | 144.84296 | 379 ft | 22 kts | 172° |
| 2026-04-23 03:38 | -37.67514 | 144.84327 | 375 ft | 21 kts | 172° |
| 2026-04-23 03:38 | -37.67674 | 144.84356 | 370 ft | 26 kts | 172° |
| 2026-04-23 03:38 | -37.67819 | 144.84390 | 366 ft | 20 kts | 152° |
| 2026-04-23 03:39 | -37.67824 | 144.84531 | 366 ft | 8 kts | 79° |
| 2026-04-23 03:39 | -37.67796 | 144.84590 | 370 ft | 7 kts | 29° |
| 2026-04-23 03:39 | -37.67751 | 144.84587 | 369 ft | 6 kts | 351° |
| 2026-04-23 03:39 | -37.67723 | 144.84582 | 370 ft | 6 kts | 351° |
| 2026-04-23 03:40 | -37.67672 | 144.84573 | 372 ft | 5 kts | 352° |
| 2026-04-23 03:40 | -37.67648 | 144.84569 | 373 ft | 5 kts | 352° |
| 2026-04-23 03:40 | -37.67602 | 144.84561 | 375 ft | 5 kts | 352° |
| 2026-04-23 03:40 | -37.67583 | 144.84569 | 376 ft | 4 kts | 38° |
| 2026-04-23 03:41 | -37.67579 | 144.84603 | 376 ft | 4 kts | 85° |
| 2026-04-23 03:41 | -37.67574 | 144.84643 | 377 ft | 5 kts | 82° |
| 2026-04-23 03:41 | -37.67573 | 144.84657 | 377 ft | 0 kts | 82° |